Terminal Aerodrome Forecast
Issued by NWS Cleveland, OH

Home | Current Version | Previous Version | Graphics & Text | Print | Product List | Glossary Off
Versions: 1 2 3 4 5 6 7 8 9 10 11 12 13 14 15 16 17 18 19 20 21 22 23 24 25 26 27

000
FTUS41 KCLE 251100 CCA
TAFERI
TAF COR
KERI 251145Z 2512/2612 02008KT P6SM BKN020 OVC040
      TEMPO 2512/2514 2SM -SN BR
     FM251600 05012KT P6SM OVC030
     FM260400 05012G22KT P6SM OVC035=

USA.gov is the U.S. government's official web portal to all federal, state and local government web resources and services.